Time;durP1;ratioP1;P1;durP2;ratioP2;P2;SDS_P1;SDS_P2;PMS_P1;PMS_P2;Temp;Humidity;BMP_temperature;BMP_pressure;BME280_temperature;BME280_humidity;BME280_pressure;Samples;Min_cycle;Max_cycle;Signal;HPM_P1;HPM_P2
2022/08/29 00:01:35;;;;;;;11.93;4.10;;;17.70;99.90;;;;;;6283731;22;20039;-91
2022/08/29 00:04:03;;;;;;;12.25;4.00;;;17.60;99.90;;;;;;6309227;22;19999;-92
2022/08/29 00:06:30;;;;;;;8.80;4.20;;;17.60;99.90;;;;;;6310478;22;20033;-90
2022/08/29 00:08:58;;;;;;;12.13;4.45;;;17.70;99.90;;;;;;6313105;22;20005;-91
2022/08/29 00:11:27;;;;;;;10.18;4.10;;;17.50;99.90;;;;;;6264823;22;20079;-89
2022/08/29 00:13:56;;;;;;;17.95;4.55;;;17.50;99.90;;;;;;6316547;22;19999;-91
2022/08/29 00:16:28;;;;;;;13.75;4.38;;;17.60;99.90;;;;;;6315632;22;20007;-91
2022/08/29 00:18:55;;;;;;;11.85;4.40;;;17.70;99.90;;;;;;6314736;22;20008;-90
2022/08/29 00:21:31;;;;;;;15.13;4.00;;;17.70;99.90;;;;;;6309782;22;20000;-91
2022/08/29 00:24:02;;;;;;;16.33;4.18;;;18.30;99.90;;;;;;6290732;22;20373;-91
2022/08/29 00:26:31;;;;;;;12.43;4.53;;;17.70;99.90;;;;;;6319699;22;19999;-92
2022/08/29 00:29:00;;;;;;;19.27;4.55;;;17.70;99.90;;;;;;6291391;22;20004;-89
2022/08/29 00:31:28;;;;;;;14.65;4.60;;;17.60;99.90;;;;;;6314034;22;20007;-90
2022/08/29 00:33:56;;;;;;;14.48;4.25;;;18.40;99.90;;;;;;6312439;22;20004;-91
2022/08/29 00:36:27;;;;;;;10.15;3.97;;;17.70;99.90;;;;;;6307006;22;20015;-91
2022/08/29 00:38:59;;;;;;;10.32;3.97;;;17.90;99.90;;;;;;6313715;22;20000;-90
2022/08/29 00:41:33;;;;;;;10.65;3.95;;;17.70;99.90;;;;;;6311499;22;20000;-91
2022/08/29 00:44:01;;;;;;;6.68;3.63;;;17.90;99.90;;;;;;6312479;22;20439;-90
2022/08/29 00:46:41;;;;;;;14.80;4.55;;;17.90;99.90;;;;;;6311730;22;20011;-91
2022/08/29 00:49:16;;;;;;;6.15;3.60;;;19.00;99.90;;;;;;6312438;22;20070;-91
2022/08/29 00:51:48;;;;;;;9.88;4.30;;;17.80;99.90;;;;;;6286001;22;20048;-91
2022/08/29 00:54:17;;;;;;;12.10;4.30;;;17.90;99.90;;;;;;6285254;22;20017;-91
2022/08/29 00:56:48;;;;;;;11.15;4.10;;;17.80;99.90;;;;;;6308166;22;20018;-89
2022/08/29 00:59:26;;;;;;;9.68;4.38;;;17.30;99.90;;;;;;6288462;22;20007;-90
2022/08/29 01:01:56;;;;;;;9.73;4.20;;;17.90;99.90;;;;;;6319534;22;20316;-90
2022/08/29 01:04:22;;;;;;;11.63;4.28;;;15.90;99.90;;;;;;6319619;22;20031;-90
2022/08/29 01:06:48;;;;;;;10.52;4.10;;;17.20;99.90;;;;;;6319047;22;20003;-89
2022/08/29 01:09:16;;;;;;;11.82;4.03;;;17.10;99.90;;;;;;6318405;22;20009;-91
2022/08/29 01:14:27;;;;;;;12.93;4.03;;;18.60;99.90;;;;;;6320541;22;20068;-91
2022/08/29 01:17:01;;;;;;;8.50;3.95;;;17.10;99.90;;;;;;6317487;22;20066;-91
2022/08/29 01:20:11;;;;;;;10.98;4.45;;;19.10;99.90;;;;;;6319835;22;20519;-92
2022/08/29 01:23:09;;;;;;;10.95;3.92;;;17.90;99.90;;;;;;6315672;22;20003;-90
2022/08/29 01:25:44;;;;;;;12.35;4.05;;;17.00;99.90;;;;;;6289004;22;20007;-90
2022/08/29 01:28:17;;;;;;;13.32;4.07;;;17.00;99.90;;;;;;6316329;22;20010;-90
2022/08/29 01:31:00;;;;;;;12.48;4.30;;;17.70;99.90;;;;;;6293144;22;19995;-90
2022/08/29 01:33:36;;;;;;;8.40;4.30;;;16.90;99.90;;;;;;6321563;22;20003;-90
2022/08/29 01:36:09;;;;;;;11.82;4.05;;;16.90;99.90;;;;;;6292434;22;20003;-90
2022/08/29 01:38:50;;;;;;;8.32;3.95;;;18.60;99.90;;;;;;6318559;22;20017;-91
2022/08/29 01:41:20;;;;;;;9.38;4.10;;;17.90;99.90;;;;;;6292621;22;19999;-90
2022/08/29 01:43:52;;;;;;;12.57;4.18;;;16.90;99.90;;;;;;6317248;22;20026;-91
2022/08/29 01:46:36;;;;;;;10.05;3.53;;;16.90;99.90;;;;;;6316997;22;20350;-92
2022/08/29 01:49:07;;;;;;;13.10;3.78;;;17.00;99.90;;;;;;6315849;22;20316;-90
2022/08/29 01:51:42;;;;;;;9.40;4.18;;;16.90;99.90;;;;;;6314889;22;20003;-90
2022/08/29 01:54:09;;;;;;;11.65;3.85;;;17.00;99.90;;;;;;6306494;22;20014;-91
2022/08/29 01:56:40;;;;;;;9.23;3.80;;;17.00;99.90;;;;;;6307973;22;20039;-91
2022/08/29 01:59:09;;;;;;;9.55;4.10;;;16.90;99.90;;;;;;6274832;22;19999;-92
2022/08/29 02:01:38;;;;;;;11.43;3.83;;;17.20;99.90;;;;;;6248305;22;20082;-89
2022/08/29 02:04:05;;;;;;;9.90;3.97;;;17.70;99.90;;;;;;6251554;22;20000;-89
2022/08/29 02:06:32;;;;;;;9.48;3.95;;;17.40;99.90;;;;;;6251075;22;20004;-88
2022/08/29 02:08:58;;;;;;;13.13;4.30;;;17.10;99.90;;;;;;6253961;22;20095;-89
2022/08/29 02:11:28;;;;;;;7.22;4.00;;;17.00;99.90;;;;;;6276459;22;20196;-88
2022/08/29 02:14:00;;;;;;;11.82;3.97;;;17.10;99.90;;;;;;6281330;22;20169;-88
2022/08/29 02:16:28;;;;;;;9.25;4.00;;;17.00;99.90;;;;;;6280839;22;20026;-88
2022/08/29 02:18:58;;;;;;;13.95;4.18;;;17.00;99.90;;;;;;6257049;22;20016;-89
2022/08/29 02:21:29;;;;;;;14.88;3.83;;;17.10;99.90;;;;;;6280105;22;20000;-90
2022/08/29 02:24:00;;;;;;;12.77;3.70;;;17.10;99.90;;;;;;6253486;22;20039;-89
2022/08/29 02:26:26;;;;;;;9.70;4.00;;;17.10;99.90;;;;;;6283656;22;20004;-91
2022/08/29 02:28:56;;;;;;;11.73;3.78;;;17.30;99.90;;;;;;6257317;22;20031;-88
2022/08/29 02:31:23;;;;;;;10.82;3.60;;;17.30;99.90;;;;;;6282994;22;20004;-91
2022/08/29 02:33:50;;;;;;;9.32;4.13;;;17.10;99.90;;;;;;6254582;22;20106;-89
2022/08/29 02:36:16;;;;;;;8.05;3.70;;;17.20;99.90;;;;;;6252926;22;20008;-90
2022/08/29 02:38:43;;;;;;;7.30;3.72;;;17.20;99.90;;;;;;6260260;22;20011;-90
2022/08/29 02:41:10;;;;;;;14.10;3.60;;;17.10;99.90;;;;;;6255305;22;20011;-89
2022/08/29 02:43:36;;;;;;;8.18;3.53;;;17.10;99.90;;;;;;6277746;22;20003;-89
2022/08/29 02:46:02;;;;;;;9.63;3.83;;;17.10;99.90;;;;;;6280007;22;20055;-88
2022/08/29 02:48:28;;;;;;;8.63;3.72;;;16.80;99.90;;;;;;6254006;22;20011;-88
2022/08/29 02:50:57;;;;;;;10.20;4.28;;;17.10;99.90;;;;;;6278770;22;20435;-89
2022/08/29 02:53:26;;;;;;;12.13;3.70;;;17.20;99.90;;;;;;6274040;22;20026;-88
2022/08/29 02:55:59;;;;;;;10.05;3.92;;;17.20;99.90;;;;;;6249055;22;20505;-90
2022/08/29 02:58:25;;;;;;;11.60;3.65;;;17.10;99.90;;;;;;6275767;22;20012;-89
2022/08/29 03:00:52;;;;;;;11.95;3.25;;;17.50;99.90;;;;;;6272340;22;20079;-88
2022/08/29 03:03:19;;;;;;;9.63;3.78;;;17.00;99.90;;;;;;6247199;22;20034;-88
2022/08/29 03:05:45;;;;;;;8.65;3.63;;;17.10;99.90;;;;;;6246877;22;20008;-87
2022/08/29 03:08:12;;;;;;;12.25;4.05;;;15.90;99.90;;;;;;6274582;22;20010;-89
2022/08/29 03:10:39;;;;;;;9.30;3.67;;;17.00;99.90;;;;;;6247305;22;20095;-91
2022/08/29 03:13:05;;;;;;;11.35;3.92;;;17.00;99.90;;;;;;6249630;22;20022;-88
2022/08/29 03:15:30;;;;;;;7.65;3.88;;;17.00;99.90;;;;;;6274257;22;20014;-92
2022/08/29 03:17:57;;;;;;;6.25;3.42;;;17.00;99.90;;;;;;6275006;22;20347;-90
2022/08/29 03:20:26;;;;;;;10.40;3.90;;;16.50;99.90;;;;;;6248616;22;20450;-91
2022/08/29 03:22:53;;;;;;;10.27;3.55;;;16.90;99.90;;;;;;6248682;22;19999;-90
2022/08/29 03:25:21;;;;;;;7.47;3.60;;;16.60;99.90;;;;;;6274119;22;20004;-90
2022/08/29 03:27:47;;;;;;;6.88;3.78;;;16.90;99.90;;;;;;6247205;22;20446;-90
2022/08/29 03:30:15;;;;;;;7.25;3.45;;;17.00;99.90;;;;;;6274061;22;19999;-89
2022/08/29 03:32:42;;;;;;;7.78;3.70;;;18.50;99.90;;;;;;6249294;22;20435;-89
2022/08/29 03:35:09;;;;;;;12.70;3.50;;;17.00;99.90;;;;;;6250209;22;20004;-89
2022/08/29 03:37:36;;;;;;;7.75;3.92;;;16.70;99.90;;;;;;6254353;22;20016;-91
2022/08/29 03:40:08;;;;;;;9.32;3.75;;;16.90;99.90;;;;;;6257533;22;20027;-90
2022/08/29 03:42:35;;;;;;;9.75;4.60;;;17.80;99.90;;;;;;6281298;22;20029;-92
2022/08/29 03:45:11;;;;;;;11.85;3.58;;;16.90;99.90;;;;;;6256770;22;20004;-91
2022/08/29 03:47:40;;;;;;;8.55;3.58;;;18.50;99.90;;;;;;6255447;22;20011;-90
2022/08/29 03:50:26;;;;;;;;;;;;;;;;;;;;;
2022/08/29 03:52:55;;;;;;;7.95;3.50;;;17.60;99.90;;;;;;6251891;22;20031;-91
2022/08/29 03:55:20;;;;;;;6.78;3.40;;;16.90;99.90;;;;;;6276675;22;20424;-89
2022/08/29 03:57:49;;;;;;;9.80;3.88;;;16.90;99.90;;;;;;6277995;22;20011;-92
2022/08/29 04:00:17;;;;;;;11.32;3.47;;;16.90;99.90;;;;;;6225378;22;20489;-91
2022/08/29 04:02:45;;;;;;;9.73;3.80;;;16.90;99.90;;;;;;6250024;22;20038;-91
2022/08/29 04:05:12;;;;;;;10.13;3.55;;;16.90;99.90;;;;;;6250510;22;20015;-90
2022/08/29 04:07:44;;;;;;;7.03;3.50;;;16.90;99.90;;;;;;6251722;22;20000;-90
2022/08/29 04:10:14;;;;;;;9.90;3.17;;;16.60;99.90;;;;;;6253782;22;20004;-92
2022/08/29 04:12:40;;;;;;;11.95;3.70;;;16.90;99.90;;;;;;6251293;22;20000;-90
2022/08/29 04:15:09;;;;;;;8.13;3.30;;;16.90;99.90;;;;;;6276683;22;20394;-89
2022/08/29 04:17:37;;;;;;;9.48;3.47;;;16.90;99.90;;;;;;6274999;22;20015;-90
2022/08/29 04:20:04;;;;;;;7.97;3.53;;;;;;;;;;6276850;22;20066;-90
2022/08/29 04:22:30;;;;;;;9.07;3.40;;;16.80;99.90;;;;;;6273728;22;20004;-89
2022/08/29 04:24:56;;;;;;;13.73;3.35;;;16.80;99.90;;;;;;6274484;22;20503;-89
2022/08/29 04:27:21;;;;;;;9.38;3.40;;;16.70;99.90;;;;;;6248777;22;20014;-89
2022/08/29 04:29:47;;;;;;;8.25;3.22;;;16.80;99.90;;;;;;6266327;22;20332;-90
2022/08/29 04:32:15;;;;;;;6.65;3.25;;;16.80;99.90;;;;;;6272826;22;20086;-90
2022/08/29 04:34:43;;;;;;;9.43;3.60;;;16.70;99.90;;;;;;6248427;22;20000;-89
2022/08/29 04:37:09;;;;;;;10.15;3.10;;;16.90;99.90;;;;;;6274128;22;20011;-89
2022/08/29 04:39:35;;;;;;;8.95;3.78;;;16.70;99.90;;;;;;6273676;22;20438;-91
2022/08/29 04:43:00;;;;;;;;;;;;;;;;;;;;;
2022/08/29 05:03:33;;;;;;;;;;;;;;;;;;;;;
2022/08/29 15:20:13;;;;;;;9.75;3.58;;;28.70;99.90;;;;;;6337154;22;20211;-88
2022/08/29 15:22:39;;;;;;;7.95;3.40;;;28.70;99.90;;;;;;6308011;22;20082;-88
2022/08/29 15:25:05;;;;;;;9.55;3.67;;;28.80;99.90;;;;;;6335480;22;20019;-89
2022/08/29 15:27:31;;;;;;;13.00;3.72;;;28.80;99.90;;;;;;6307888;22;20002;-88
2022/08/29 15:29:58;;;;;;;8.25;3.78;;;28.80;99.90;;;;;;6307860;22;20053;-88
2022/08/29 15:32:24;;;;;;;6.10;3.40;;;28.70;99.90;;;;;;6307809;22;20093;-88
2022/08/29 15:34:49;;;;;;;7.85;3.53;;;28.70;99.90;;;;;;6335511;22;20026;-88
2022/08/29 15:37:16;;;;;;;11.15;3.72;;;28.80;99.90;;;;;;6308549;22;20411;-88
2022/08/29 15:39:41;;;;;;;7.25;3.63;;;28.90;99.90;;;;;;6336179;22;20030;-89
2022/08/29 15:42:10;;;;;;;5.80;3.35;;;29.00;99.90;;;;;;6308074;22;20041;-88
2022/08/29 15:44:37;;;;;;;6.25;3.70;;;29.20;99.90;;;;;;6335431;22;19998;-90
2022/08/29 15:47:03;;;;;;;;;;;28.90;99.90;;;;;;6335702;22;20010;-88
2022/08/29 15:49:29;;;;;;;4.70;3.50;;;28.80;99.90;;;;;;6335182;22;20016;-89
2022/08/29 15:51:55;;;;;;;5.13;3.63;;;28.70;99.90;;;;;;6335564;22;20256;-88
2022/08/29 15:54:22;;;;;;;4.85;3.53;;;28.70;99.90;;;;;;6306349;22;19999;-89
2022/08/29 15:56:48;;;;;;;6.68;3.40;;;28.70;99.90;;;;;;6335228;22;20003;-88
2022/08/29 15:59:15;;;;;;;8.93;4.07;;;28.70;99.90;;;;;;6335899;22;20006;-88
2022/08/29 16:01:46;;;;;;;5.88;3.38;;;28.60;99.90;;;;;;6334931;22;19995;-86
2022/08/29 16:04:13;;;;;;;16.90;3.80;;;;;;;;;;6335050;22;19998;-90
2022/08/29 16:06:39;;;;;;;7.68;3.60;;;;;;;;;;6334882;22;20116;-91
2022/08/29 16:09:07;;;;;;;10.27;3.58;;;;;;;;;;6307204;22;20009;-91
2022/08/29 16:11:35;;;;;;;7.57;3.80;;;;;;;;;;6334753;22;20026;-90
2022/08/29 16:14:02;;;;;;;12.05;4.30;;;;;;;;;;6307695;22;20007;-89
2022/08/29 16:16:28;;;;;;;6.60;3.60;;;;;;;;;;6336454;22;19995;-92
2022/08/29 16:18:54;;;;;;;6.60;3.30;;;28.70;99.90;;;;;;6335984;22;20014;-90
2022/08/29 16:21:22;;;;;;;6.28;3.38;;;28.30;99.90;;;;;;6309012;22;20026;-91
2022/08/29 16:23:50;;;;;;;5.38;3.80;;;28.50;99.90;;;;;;6336635;22;20002;-90
2022/08/29 16:26:20;;;;;;;6.43;3.40;;;28.50;99.90;;;;;;6336742;22;20050;-90
2022/08/29 16:28:47;;;;;;;6.97;3.83;;;28.90;99.90;;;;;;6335348;22;20002;-90
2022/08/29 16:31:14;;;;;;;6.10;3.63;;;28.10;99.90;;;;;;6307345;22;20038;-89
2022/08/29 16:33:40;;;;;;;7.70;3.80;;;28.20;99.90;;;;;;6307594;22;20305;-90
2022/08/29 16:36:06;;;;;;;8.38;4.00;;;28.50;99.90;;;;;;6334896;22;20031;-90
2022/08/29 16:38:35;;;;;;;6.63;3.78;;;28.20;99.90;;;;;;6334581;22;20086;-88
2022/08/29 16:41:06;;;;;;;9.85;3.50;;;28.50;99.90;;;;;;6335148;22;20499;-90
2022/08/29 16:43:32;;;;;;;5.28;3.63;;;28.20;99.90;;;;;;6335217;22;20045;-89
2022/08/29 16:45:58;;;;;;;5.68;3.50;;;28.20;99.90;;;;;;6335744;22;19995;-89
2022/08/29 16:48:23;;;;;;;6.13;3.45;;;28.20;99.90;;;;;;6334634;22;20055;-89
2022/08/29 16:50:50;;;;;;;9.38;3.60;;;28.60;99.90;;;;;;6307887;22;20006;-89
2022/08/29 16:53:15;;;;;;;11.88;3.92;;;28.50;99.90;;;;;;6307443;22;20063;-87
2022/08/29 16:55:41;;;;;;;7.13;3.30;;;28.30;99.90;;;;;;6335063;22;20717;-88
2022/08/29 17:00:55;;;;;;;8.20;3.30;;;28.60;99.90;;;;;;6335582;22;20060;-90
2022/08/29 17:03:20;;;;;;;9.18;3.80;;;28.80;99.90;;;;;;6310144;22;20006;-91
2022/08/29 17:05:47;;;;;;;5.55;3.58;;;28.90;99.90;;;;;;6325737;22;20033;-89
2022/08/29 17:17:55;;;;;;;7.53;3.67;;;31.70;99.90;;;;;;6334935;22;20295;-88
2022/08/29 17:20:21;;;;;;;10.27;3.33;;;30.50;99.90;;;;;;6335611;22;20462;-88
2022/08/29 17:22:47;;;;;;;8.05;3.40;;;30.70;99.90;;;;;;6307346;22;20009;-90
2022/08/29 17:25:13;;;;;;;14.07;3.60;;;30.60;99.90;;;;;;6335124;22;20440;-88
2022/08/29 17:27:38;;;;;;;7.78;3.65;;;30.70;99.90;;;;;;6307519;22;20003;-90
2022/08/29 17:30:05;;;;;;;12.60;3.40;;;30.20;99.90;;;;;;6334805;22;20075;-89
2022/08/29 17:32:31;;;;;;;14.67;3.67;;;;;;;;;;6335847;22;20437;-91
2022/08/29 17:34:57;;;;;;;5.75;3.35;;;29.50;99.90;;;;;;6334833;22;20009;-88
2022/08/29 17:37:23;;;;;;;7.63;3.47;;;29.30;99.90;;;;;;6307821;22;20106;-91
2022/08/29 17:39:49;;;;;;;9.07;3.53;;;29.30;99.90;;;;;;6334811;22;20003;-91
2022/08/29 17:42:21;;;;;;;7.50;3.40;;;28.90;99.90;;;;;;6306400;22;20011;-90
2022/08/29 17:44:47;;;;;;;9.75;3.33;;;28.70;99.90;;;;;;6307426;22;20014;-87
2022/08/29 17:47:13;;;;;;;6.05;3.50;;;28.60;99.90;;;;;;6305548;22;20590;-88
2022/08/29 17:49:38;;;;;;;5.88;3.40;;;28.30;99.90;;;;;;6332357;22;19999;-89
2022/08/29 17:52:04;;;;;;;7.78;3.47;;;28.10;99.90;;;;;;6333866;22;20050;-91
2022/08/29 17:54:32;;;;;;;5.75;3.50;;;28.40;99.90;;;;;;6335600;22;20006;-92
2022/08/29 17:56:59;;;;;;;9.43;3.47;;;28.00;99.90;;;;;;6334614;22;20338;-91
2022/08/29 17:59:27;;;;;;;5.00;3.60;;;28.30;99.90;;;;;;6307541;22;20430;-89
2022/08/29 18:01:58;;;;;;;9.15;3.53;;;27.90;99.90;;;;;;6335852;22;20010;-92
2022/08/29 18:04:26;;;;;;;5.97;3.25;;;27.80;99.90;;;;;;6334865;22;20430;-89
2022/08/29 18:06:54;;;;;;;9.98;3.50;;;27.70;99.90;;;;;;6335009;22;19999;-91
2022/08/29 18:09:21;;;;;;;7.63;3.38;;;27.70;99.90;;;;;;6308308;22;20017;-89
2022/08/29 18:11:49;;;;;;;7.32;3.70;;;27.60;99.90;;;;;;6306942;22;20044;-91
2022/08/29 18:14:16;;;;;;;5.75;3.33;;;27.40;99.90;;;;;;6306763;22;20256;-90
2022/08/29 18:16:42;;;;;;;6.18;3.60;;;29.00;99.90;;;;;;6334297;22;19995;-88
2022/08/29 18:19:07;;;;;;;9.38;3.63;;;27.60;99.90;;;;;;6305962;22;20026;-89
2022/08/29 18:21:34;;;;;;;5.28;3.55;;;27.20;99.90;;;;;;6333471;22;19999;-88
2022/08/29 18:24:00;;;;;;;8.00;3.10;;;28.40;99.90;;;;;;6334490;22;19999;-90
2022/08/29 18:26:26;;;;;;;10.82;3.13;;;26.70;99.90;;;;;;6309174;22;19998;-89
2022/08/29 18:28:53;;;;;;;12.73;3.25;;;26.30;99.90;;;;;;6310169;22;20009;-91
2022/08/29 18:31:19;;;;;;;17.13;2.87;;;26.00;99.90;;;;;;6335366;22;20043;-91
2022/08/29 18:33:46;;;;;;;13.30;3.17;;;25.90;99.90;;;;;;6309308;22;20245;-88
2022/08/29 18:36:13;;;;;;;11.18;2.60;;;25.60;99.90;;;;;;6308388;22;20003;-89
2022/08/29 18:38:39;;;;;;;10.00;2.67;;;25.60;99.90;;;;;;6308164;22;20129;-90
2022/08/29 18:41:05;;;;;;;15.43;3.17;;;;;;;;;;6306996;22;20393;-90
2022/08/29 18:43:32;;;;;;;15.85;2.80;;;25.40;99.90;;;;;;6307861;22;20396;-88
2022/08/29 18:46:01;;;;;;;9.73;2.85;;;25.20;99.90;;;;;;6337251;22;20040;-89
2022/08/29 18:48:27;;;;;;;8.85;3.00;;;25.00;99.90;;;;;;6337538;22;20037;-88
2022/08/29 18:50:54;;;;;;;12.70;2.78;;;25.00;99.90;;;;;;6308265;22;20355;-89
2022/08/29 18:53:22;;;;;;;10.10;2.77;;;25.00;99.90;;;;;;6335279;22;19995;-91
2022/08/29 18:55:51;;;;;;;13.50;3.00;;;24.80;99.90;;;;;;6307542;22;20065;-91
2022/08/29 18:58:22;;;;;;;13.00;3.08;;;25.00;99.90;;;;;;6308531;22;20367;-89
2022/08/29 19:00:51;;;;;;;12.13;2.80;;;24.50;99.90;;;;;;6306606;22;20010;-88
2022/08/29 19:03:17;;;;;;;19.02;2.78;;;24.40;99.90;;;;;;6334979;22;20078;-88
2022/08/29 19:05:48;;;;;;;11.38;2.60;;;24.50;99.90;;;;;;6335479;22;20023;-89
2022/08/29 19:08:14;;;;;;;9.95;2.85;;;24.30;99.90;;;;;;6306477;22;20090;-88
2022/08/29 19:10:41;;;;;;;10.13;3.00;;;24.10;99.90;;;;;;6306856;22;20006;-87
2022/08/29 19:13:07;;;;;;;12.80;3.05;;;24.10;99.90;;;;;;6335227;22;20076;-88
2022/08/29 19:15:35;;;;;;;11.25;2.75;;;24.10;99.90;;;;;;6307200;22;20017;-88
2022/08/29 19:18:01;;;;;;;16.35;3.80;;;24.00;99.90;;;;;;6306823;22;20402;-87
2022/08/29 19:23:12;;;;;;;16.40;3.20;;;24.20;99.90;;;;;;6334929;22;20056;-92
2022/08/29 19:25:38;;;;;;;18.33;3.22;;;23.70;99.90;;;;;;6309065;22;20439;-88
2022/08/29 19:28:05;;;;;;;14.25;3.03;;;23.70;99.90;;;;;;6334536;22;20002;-89
2022/08/29 19:30:34;;;;;;;14.27;2.80;;;23.60;99.90;;;;;;6334839;22;20334;-90
2022/08/29 19:33:00;;;;;;;9.18;2.70;;;23.60;99.90;;;;;;6307415;22;20003;-88
2022/08/29 19:35:26;;;;;;;13.45;2.90;;;23.60;99.90;;;;;;6335802;22;20388;-89
2022/08/29 19:37:52;;;;;;;14.10;3.15;;;23.50;99.90;;;;;;6307428;22;20068;-90
2022/08/29 19:40:20;;;;;;;14.25;3.10;;;23.40;99.90;;;;;;6307261;22;20003;-88
2022/08/29 19:42:46;;;;;;;9.25;2.80;;;23.30;99.90;;;;;;6334764;22;20006;-88
2022/08/29 19:45:15;;;;;;;17.85;3.03;;;23.20;99.90;;;;;;6334711;22;20006;-89
2022/08/29 19:47:41;;;;;;;12.48;3.08;;;23.20;99.90;;;;;;6308966;22;20009;-88
2022/08/29 19:50:09;;;;;;;19.00;2.95;;;23.10;99.90;;;;;;6336260;22;19999;-89
2022/08/29 19:52:35;;;;;;;12.52;2.67;;;23.00;99.90;;;;;;6319032;22;20013;-86
2022/08/29 19:55:09;;;;;;;9.27;2.50;;;23.00;99.90;;;;;;6345941;22;20041;-87
2022/08/29 19:57:36;;;;;;;13.85;2.97;;;22.90;99.90;;;;;;6328853;22;19987;-88
2022/08/29 20:00:03;;;;;;;13.48;3.08;;;23.10;99.90;;;;;;6347763;22;20006;-86
2022/08/29 20:02:29;;;;;;;17.53;2.90;;;22.80;99.90;;;;;;6309218;22;20358;-90
2022/08/29 20:04:54;;;;;;;9.25;2.70;;;22.90;99.90;;;;;;6308649;22;20053;-87
2022/08/29 20:07:20;;;;;;;9.20;3.10;;;22.80;99.90;;;;;;6334471;22;19999;-91
2022/08/29 20:09:46;;;;;;;8.32;2.50;;;22.60;99.90;;;;;;6334323;22;19999;-89
2022/08/29 20:12:12;;;;;;;8.55;2.85;;;22.50;99.90;;;;;;6307050;22;20082;-88
2022/08/29 20:14:37;;;;;;;11.15;3.05;;;22.40;99.90;;;;;;6334109;22;20072;-87
2022/08/29 20:17:05;;;;;;;6.35;2.63;;;22.40;99.90;;;;;;6306345;22;20007;-88
2022/08/29 20:19:33;;;;;;;14.65;2.97;;;22.40;99.90;;;;;;6334528;22;20021;-86
2022/08/29 20:21:59;;;;;;;11.05;2.83;;;22.70;99.90;;;;;;6335362;22;20442;-86
2022/08/29 20:24:25;;;;;;;17.38;2.65;;;22.40;99.90;;;;;;6335288;22;20074;-88
2022/08/29 20:26:50;;;;;;;13.82;3.00;;;22.10;99.90;;;;;;6334611;22;20027;-89
2022/08/29 20:29:19;;;;;;;12.48;3.10;;;22.10;99.90;;;;;;6333957;22;20381;-90
2022/08/29 20:31:46;;;;;;;8.98;2.67;;;22.70;99.90;;;;;;6305950;22;20357;-87
2022/08/29 20:34:12;;;;;;;15.93;3.15;;;21.90;99.90;;;;;;6306477;22;20003;-88
2022/08/29 20:39:24;;;;;;;12.60;2.90;;;21.90;99.90;;;;;;6334170;22;20106;-87
2022/08/29 20:41:54;;;;;;;11.88;2.95;;;21.80;99.90;;;;;;6306798;22;20605;-88
2022/08/29 20:44:21;;;;;;;9.25;3.03;;;21.70;99.90;;;;;;6334294;22;20457;-88
2022/08/29 20:46:47;;;;;;;9.03;2.93;;;21.70;99.90;;;;;;6306403;22;19998;-88
2022/08/29 20:49:18;;;;;;;12.68;3.03;;;21.80;99.90;;;;;;6334907;22;19995;-88
2022/08/29 20:51:44;;;;;;;11.52;3.05;;;21.70;99.90;;;;;;6334571;22;20123;-90
2022/08/29 20:54:12;;;;;;;7.22;2.65;;;21.50;99.90;;;;;;6306359;22;20006;-90
2022/08/29 20:56:38;;;;;;;16.08;3.13;;;21.50;99.90;;;;;;6306271;22;20031;-89
2022/08/29 20:59:04;;;;;;;8.85;2.72;;;21.40;99.90;;;;;;6306091;22;20332;-87
2022/08/29 21:01:30;;;;;;;19.60;3.15;;;21.90;99.90;;;;;;6334525;22;20022;-88
2022/08/29 21:06:39;;;;;;;12.18;2.90;;;21.30;99.90;;;;;;6334009;22;20503;-90
2022/08/29 21:09:06;;;;;;;8.23;2.70;;;21.40;99.90;;;;;;6333770;22;20077;-88
2022/08/29 21:11:32;;;;;;;14.65;2.85;;;21.40;99.90;;;;;;6306882;22;20087;-87
2022/08/29 21:13:58;;;;;;;8.60;3.30;;;20.80;99.90;;;;;;6334115;22;20049;-89
2022/08/29 21:16:23;;;;;;;9.80;2.97;;;21.80;99.90;;;;;;6334064;22;19998;-87
2022/08/29 21:18:52;;;;;;;9.30;2.83;;;21.10;99.90;;;;;;6334050;22;20347;-89
2022/08/29 21:21:18;;;;;;;11.10;3.47;;;21.10;99.90;;;;;;6306094;22;20003;-87
2022/08/29 21:23:45;;;;;;;14.57;3.30;;;21.10;99.90;;;;;;6306287;22;20021;-86
2022/08/29 21:26:12;;;;;;;9.10;3.10;;;21.00;99.90;;;;;;6306489;22;20013;-87
2022/08/29 21:28:37;;;;;;;12.48;3.20;;;20.80;99.90;;;;;;6334414;22;19999;-88
2022/08/29 21:31:11;;;;;;;8.77;2.90;;;20.80;99.90;;;;;;6334032;22;20105;-89
2022/08/29 21:33:38;;;;;;;11.80;3.10;;;20.90;99.90;;;;;;6333871;22;19995;-87
2022/08/29 21:36:14;;;;;;;7.43;3.00;;;20.80;99.90;;;;;;6333639;22;20007;-87
2022/08/29 21:38:40;;;;;;;9.35;2.97;;;21.10;99.90;;;;;;6333434;22;20017;-88
2022/08/29 21:41:11;;;;;;;9.60;3.20;;;20.80;99.90;;;;;;6333732;22;20066;-87
2022/08/29 21:43:37;;;;;;;11.13;3.38;;;20.80;99.90;;;;;;6306341;22;20010;-89
2022/08/29 21:46:12;;;;;;;11.68;3.40;;;20.80;99.90;;;;;;6334872;22;19995;-86
2022/08/29 21:48:37;;;;;;;13.98;3.35;;;20.60;99.90;;;;;;6306420;22;20007;-88
2022/08/29 21:51:04;;;;;;;13.43;3.25;;;20.60;99.90;;;;;;6334996;22;20338;-87
2022/08/29 21:53:29;;;;;;;9.48;2.95;;;20.90;99.90;;;;;;6335109;22;20003;-86
2022/08/29 21:55:55;;;;;;;17.73;3.60;;;20.50;99.90;;;;;;6337517;22;20056;-86
2022/08/29 21:58:21;;;;;;;10.38;3.05;;;20.40;99.90;;;;;;6305352;22;20015;-88
2022/08/29 22:00:46;;;;;;;14.43;3.30;;;20.40;99.90;;;;;;6335159;22;20087;-87
2022/08/29 22:03:12;;;;;;;18.98;3.10;;;20.50;99.90;;;;;;6335848;22;20003;-88
2022/08/29 22:05:38;;;;;;;13.07;3.40;;;20.80;99.90;;;;;;6335487;22;19995;-88
2022/08/29 22:08:04;;;;;;;9.55;3.08;;;20.40;99.90;;;;;;6309000;22;20014;-86
2022/08/29 22:10:33;;;;;;;20.17;3.42;;;20.40;99.90;;;;;;6336603;22;19999;-87
2022/08/29 22:13:00;;;;;;;13.80;2.95;;;20.20;99.90;;;;;;6308090;22;20007;-87
2022/08/29 22:18:13;;;;;;;13.32;3.58;;;20.10;99.90;;;;;;6335390;22;20460;-87
2022/08/29 22:20:40;;;;;;;10.30;2.60;;;20.10;99.90;;;;;;6335146;22;20091;-86
2022/08/29 22:23:07;;;;;;;17.83;3.13;;;20.00;99.90;;;;;;6335700;22;20003;-86
2022/08/29 22:25:32;;;;;;;10.43;3.13;;;19.90;99.90;;;;;;6336049;22;20002;-88
2022/08/29 22:27:59;;;;;;;15.43;3.58;;;19.90;99.90;;;;;;6307698;22;20007;-87
2022/08/29 22:30:25;;;;;;;11.85;3.63;;;19.90;99.90;;;;;;6335317;22;20009;-87
2022/08/29 22:32:51;;;;;;;12.85;3.42;;;19.90;99.90;;;;;;6335777;22;20056;-88
2022/08/29 22:35:17;;;;;;;15.65;3.42;;;19.80;99.90;;;;;;6336058;22;20062;-87
2022/08/29 22:37:43;;;;;;;14.07;3.20;;;19.70;99.90;;;;;;6336369;22;20025;-88
2022/08/29 22:40:13;;;;;;;16.52;3.67;;;19.80;99.90;;;;;;6359474;22;20029;-87
2022/08/29 22:42:39;;;;;;;16.27;3.83;;;19.90;99.90;;;;;;6328950;22;20003;-87
2022/08/29 22:45:07;;;;;;;11.02;3.40;;;19.90;99.90;;;;;;6335287;22;20011;-86
2022/08/29 22:47:38;;;;;;;13.85;3.38;;;19.80;99.90;;;;;;6338878;22;20009;-89
2022/08/29 22:50:06;;;;;;;10.80;3.30;;;19.80;99.90;;;;;;6337272;22;20415;-88
2022/08/29 22:52:33;;;;;;;12.02;3.58;;;19.90;99.90;;;;;;6336442;22;19999;-86
2022/08/29 22:54:58;;;;;;;15.70;3.35;;;19.70;99.90;;;;;;6307449;22;20450;-88
2022/08/29 22:57:24;;;;;;;15.65;3.25;;;19.70;99.90;;;;;;6334819;22;20450;-88
2022/08/29 22:59:50;;;;;;;15.82;2.92;;;19.70;99.90;;;;;;6306932;22;20003;-87
2022/08/29 23:02:18;;;;;;;14.60;3.08;;;19.80;99.90;;;;;;6334961;22;20069;-86
2022/08/29 23:04:44;;;;;;;11.65;3.47;;;19.50;99.90;;;;;;6334466;22;20001;-88
2022/08/29 23:07:11;;;;;;;10.02;3.60;;;19.60;99.90;;;;;;6335046;22;19999;-88
2022/08/29 23:09:37;;;;;;;8.70;3.30;;;19.70;99.90;;;;;;6307989;22;20036;-87
2022/08/29 23:12:05;;;;;;;16.35;3.67;;;19.60;99.90;;;;;;6334618;22;20438;-88
2022/08/29 23:14:31;;;;;;;;;;;19.60;99.90;;;;;;6335437;22;20005;-89
2022/08/29 23:16:57;;;;;;;10.43;3.15;;;19.60;99.90;;;;;;6307237;22;19985;-89
2022/08/29 23:19:22;;;;;;;7.53;3.25;;;19.60;99.90;;;;;;6334763;22;20061;-89
2022/08/29 23:21:48;;;;;;;12.45;3.30;;;19.40;99.90;;;;;;6334748;22;19999;-88
2022/08/29 23:24:14;;;;;;;11.25;3.65;;;19.30;99.90;;;;;;6334737;22;20010;-86
2022/08/29 23:26:41;;;;;;;12.60;3.42;;;19.40;99.90;;;;;;6334357;22;19995;-87
2022/08/29 23:29:07;;;;;;;16.20;3.67;;;21.20;99.90;;;;;;6335831;22;20022;-88
2022/08/29 23:31:33;;;;;;;13.63;3.58;;;19.20;99.90;;;;;;6307040;22;20343;-87
2022/08/29 23:33:59;;;;;;;11.40;3.33;;;19.30;99.90;;;;;;6334565;22;20356;-87
2022/08/29 23:36:25;;;;;;;12.48;3.45;;;19.20;99.90;;;;;;6334577;22;20003;-86
2022/08/29 23:38:50;;;;;;;16.85;3.50;;;19.30;99.90;;;;;;6307326;22;20328;-89
2022/08/29 23:41:16;;;;;;;10.13;3.33;;;19.10;99.90;;;;;;6334815;22;20078;-86
2022/08/29 23:43:44;;;;;;;17.35;3.60;;;19.10;99.90;;;;;;6334973;22;19999;-86
2022/08/29 23:46:10;;;;;;;11.15;3.35;;;19.70;99.90;;;;;;6335773;22;20078;-89
2022/08/29 23:48:36;;;;;;;19.88;3.70;;;18.90;99.90;;;;;;6335507;22;19995;-88
2022/08/29 23:51:09;;;;;;;10.55;3.90;;;19.50;99.90;;;;;;6306485;22;20013;-88